Terminal Aerodrome Forecast
Issued by NWS

Current Version | Previous Version | Text Only | Print | Product List | Glossary On
Versions: 1 2 3 4 5 6 7 8 9 10 11 12 13 14 15 16 17 18 19
000
FTUS46 KSGX 201700
TAFTRM
TAF
KTRM 201726Z 2018/2118 33009KT P6SM SCT090
     FM201900 14009KT P6SM SCT090 SCT120
     FM202300 VRB06KT P6SM SCT090 SCT120
     FM210300 32009KT P6SM SCT100 SCT150
     FM210600 VRB06KT P6SM FEW090=

USA.gov is the U.S. government's official web portal to all federal, state and local government web resources and services.